Latest Weather Observations for Perth Airport

IDW60901

Issued at 12:11 pm WST Tuesday 5 May 2015 (issued every 10 minutes, with the page automatically refreshed every 10 minutes)

About weather observations | Map of Perth area stations | Latest observations for Perth area | Other Formats
Station Details ID: 009021 Name: PERTH AIRPORT Lat: -31.93 Lon: 115.98 Height: 15.4 m
Data from the previous 72 hours. | See also: Recent months at Perth Airport
Date/Time
WST
Tmp

°C
App
Tmp
°C
Dew
Point
°C
Rel
Hum
%
Delta-T

°C
Wind Press
QNH
hPa
Press
MSL
hPa
Rain
since
9 am
mm
Dir
 
Spd
km/h
Gust
km/h
Spd
kts
Gust
kts
05/12:00pm 18.1 14.5 6.8 47 5.6 SSE 15 26 8 14 1028.3 1028.4 0.0
05/11:30am 17.9 14.3 6.8 48 5.5 SSE 15 24 8 13 1028.7 - 0.0
05/11:00am 17.3 13.7 6.7 49 5.2 S 15 19 8 10 1029.0 - 0.0
05/10:30am 17.0 13.0 6.6 50 5.1 S 17 24 9 13 1029.2 - 0.0
05/10:00am 16.3 14.5 7.9 57 4.2 SSE 7 22 4 12 1029.3 - 0.0
05/09:30am 13.3 12.7 7.5 68 2.8 CALM 0 6 0 3 1029.4 - 0.0
05/09:00am 13.4 12.7 6.9 65 3.1 CALM 0 0 0 0 1029.5 1029.6 0.2
05/07:30am 4.6 2.1 3.6 93 0.4 NNE 6 7 3 4 1028.8 - 0.2
05/07:00am 3.6 0.8 3.4 99 0.1 N 7 9 4 5 1028.7 - 0.2
05/06:30am 3.2 0.5 2.9 98 0.1 NNE 6 9 3 5 1028.6 - 0.2
05/05:00am 3.5 2.0 3.0 97 0.2 CALM 0 0 0 0 1028.3 - 0.2
05/04:30am 3.7 2.2 3.2 97 0.2 CALM 0 0 0 0 1028.3 - 0.2
05/04:00am 3.7 2.2 3.2 97 0.2 CALM 0 0 0 0 1028.2 - 0.2
05/03:30am 3.8 1.2 3.3 97 0.2 NNE 6 7 3 4 1028.1 - 0.2
05/03:00am 3.9 0.8 3.4 97 0.2 NNE 9 9 5 5 1028.0 1028.1 0.2
05/02:30am 3.9 0.7 3.2 95 0.3 NNE 9 9 5 5 1028.2 - 0.2
05/02:00am 4.0 2.6 3.3 95 0.3 CALM 0 0 0 0 1028.3 - 0.2
05/01:30am 4.3 1.8 3.8 97 0.2 N 6 7 3 4 1028.2 - 0.2
05/01:00am 4.4 1.4 3.9 97 0.2 NNE 9 11 5 6 1028.0 - 0.2
05/12:30am 4.6 1.9 3.9 95 0.3 SSE 7 9 4 5 1027.8 - 0.2
 
Date/Time
WST
Tmp

°C
App
Tmp
°C
Dew
Point
°C
Rel
Hum
%
Delta-T

°C
Wind Press
QNH
hPa
Press
MSL
hPa
Rain
since
9 am
mm
Dir
 
Spd
km/h
Gust
km/h
Spd
kts
Gust
kts
04/11:30pm 5.8 2.5 4.6 92 0.5 SSE 11 13 6 7 1027.8 - 0.2
04/11:00pm 5.9 3.0 4.7 92 0.5 S 9 11 5 6 1028.0 - 0.2
04/10:30pm 6.0 3.7 4.8 92 0.5 S 6 7 3 4 1028.0 - 0.2
04/10:00pm 6.8 4.4 5.2 89 0.7 SSE 7 7 4 4 1027.8 - 0.2
04/09:30pm 6.9 4.5 5.3 89 0.7 SSE 7 9 4 5 1027.5 - 0.2
04/09:00pm 7.4 5.0 5.4 87 0.9 S 7 9 4 5 1027.5 1027.6 0.2
04/08:30pm 8.1 5.3 5.2 82 1.3 S 9 13 5 7 1027.2 - 0.2
04/07:30pm 10.6 7.1 5.3 70 2.4 S 13 15 7 8 1026.7 - 0.2
04/07:00pm 13.2 8.8 4.7 56 3.9 SSW 17 22 9 12 1026.3 - 0.2
04/06:30pm 13.7 8.7 4.5 54 4.2 SSW 20 26 11 14 1025.9 - 0.2
04/06:00pm 14.3 9.8 4.0 50 4.7 S 17 24 9 13 1025.4 1025.5 0.2
04/05:30pm 14.7 10.6 4.2 49 4.8 SSW 15 20 8 11 1025.1 - 0.2
04/05:00pm 15.2 10.2 4.7 49 4.9 SSW 20 28 11 15 1024.9 - 0.2
04/04:30pm 16.2 10.1 4.7 46 5.4 SSW 26 37 14 20 1024.6 - 0.2
04/04:00pm 16.2 10.0 4.1 44 5.6 SSW 26 35 14 19 1024.4 - 0.2
04/03:30pm 16.0 10.3 5.0 48 5.2 SSW 24 37 13 20 1024.1 - 0.2
04/03:00pm 16.8 11.1 5.0 45 5.6 SSW 24 35 13 19 1023.8 1023.9 0.2
04/02:30pm 16.5 12.2 5.1 47 5.4 SSW 17 24 9 13 1023.7 - 0.2
04/02:00pm 16.5 11.1 6.2 50 5.0 SSW 24 33 13 18 1023.6 - 0.2
04/01:30pm 15.3 9.4 5.6 52 4.6 SW 26 43 14 23 1023.5 - 0.2
04/01:00pm 16.5 12.3 5.9 49 5.1 SW 17 26 9 14 1023.5 - 0.2
04/12:30pm 15.1 9.9 7.1 59 3.9 S 24 28 13 15 1023.9 - 0.2
04/12:00pm 15.5 11.4 6.1 53 4.5 S 17 28 9 15 1023.8 1023.9 0.2
04/11:30am 15.7 11.1 6.7 55 4.4 SSW 20 30 11 16 1023.9 - 0.2
04/11:00am 14.1 8.9 7.3 63 3.3 S 24 35 13 19 1024.0 - 0.2
04/10:50am 13.6 7.5 6.7 63 3.3 S 28 39 15 21 1024.0 - 0.2
04/10:30am 13.1 9.6 7.3 68 2.8 S 15 19 8 10 1023.7 - 0.2
04/10:00am 13.5 11.4 8.3 71 2.6 S 9 13 5 7 1023.5 - 0.2
04/09:30am 11.8 8.8 7.9 77 1.9 S 13 19 7 10 1023.4 - 0.2
04/09:14am 11.1 8.2 8.0 81 1.5 S 13 19 7 10 1023.1 - 0.2
04/09:03am - - - - - - - - - - - - -
04/09:00am 10.9 7.6 8.0 82 1.4 S 15 20 8 11 1023.1 1023.1 6.0
04/08:30am 11.9 9.5 7.1 72 2.3 SE 9 13 5 7 1022.0 - 5.8
04/08:00am 9.9 9.2 8.7 92 0.6 S 2 7 1 4 1021.4 - 5.8
04/07:30am 8.2 6.5 7.6 96 0.3 SE 6 7 3 4 1020.9 - 5.8
04/07:00am 7.5 5.6 6.8 95 0.3 ENE 6 7 3 4 1019.9 - 5.8
04/06:30am 7.8 5.4 6.9 94 0.4 E 9 11 5 6 1019.4 - 5.8
04/06:00am 9.1 6.1 7.6 90 0.7 S 13 17 7 9 1019.4 1019.4 5.8
04/05:30am 9.8 7.2 7.9 88 0.9 SW 11 17 6 9 1019.1 - 5.6
04/05:00am 9.6 7.6 7.0 84 1.2 WNW 7 13 4 7 1018.5 - 5.2
04/04:30am 9.8 6.0 7.7 87 1.0 S 17 24 9 13 1018.0 - 5.2
04/04:00am 10.2 6.2 8.1 87 1.0 S 19 24 10 13 1017.7 - 5.2
04/03:30am 10.4 6.8 8.3 87 1.0 SSW 17 24 9 13 1017.0 - 5.2
04/03:14am 10.8 5.1 8.3 84 1.2 SSW 28 39 15 21 1017.3 - 4.4
04/03:00am 11.3 6.3 6.4 72 2.3 SSW 22 30 12 16 1016.6 1016.6 4.0
04/02:50am 10.9 3.5 6.9 76 1.9 SSW 35 54 19 29 1016.5 - 4.0
04/02:44am 12.6 3.9 6.0 64 3.1 SSW 41 54 22 29 1016.7 - 4.0
04/02:30am 13.5 7.7 4.3 53 4.2 SW 24 33 13 18 1016.2 - 3.8
04/02:00am 13.1 7.9 5.4 59 3.6 WSW 22 35 12 19 1016.2 - 3.8
04/01:30am 12.8 7.2 5.5 61 3.4 SW 24 35 13 19 1016.1 - 3.6
04/01:02am 13.9 4.3 6.4 60 3.6 SW 46 65 25 35 1015.9 - 3.6
04/12:35am 14.8 7.3 4.2 49 4.9 SW 33 54 18 29 1015.0 - 3.6
04/12:30am 15.1 7.6 4.3 48 5.0 WSW 33 50 18 27 1014.9 - 3.6
04/12:23am 14.4 7.6 6.8 60 3.7 SW 32 50 17 27 1014.9 - 3.6
04/12:00am 14.4 7.1 8.9 69 2.8 SW 37 54 20 29 1014.9 1014.9 3.6
 
Date/Time
WST
Tmp

°C
App
Tmp
°C
Dew
Point
°C
Rel
Hum
%
Delta-T

°C
Wind Press
QNH
hPa
Press
MSL
hPa
Rain
since
9 am
mm
Dir
 
Spd
km/h
Gust
km/h
Spd
kts
Gust
kts
03/11:35pm 14.3 7.1 9.2 71 2.6 WSW 37 61 20 33 1014.6 - 3.6
03/11:30pm 15.0 6.1 7.8 62 3.6 WSW 44 61 24 33 1014.6 - 3.4
03/11:00pm 15.0 6.9 10.2 73 2.5 WSW 43 69 23 37 1014.1 - 3.4
03/10:53pm 15.3 9.0 11.0 75 2.3 WSW 35 56 19 30 1014.1 - 3.4
03/10:37pm 15.4 8.2 11.9 79 1.9 WSW 41 59 22 32 1013.9 - 2.8
03/10:30pm 16.3 10.3 10.7 69 3.0 WSW 33 59 18 32 1013.9 - 2.8
03/10:08pm 17.2 12.0 10.4 64 3.6 WSW 28 48 15 26 1013.4 - 2.8
03/10:00pm 16.8 12.0 10.2 65 3.5 WSW 26 35 14 19 1013.5 - 2.8
03/09:46pm 17.0 10.7 9.8 62 3.8 WSW 33 52 18 28 1013.5 - 2.8
03/09:30pm 17.1 9.8 10.3 64 3.6 WSW 39 56 21 30 1013.3 - 2.8
03/09:03pm 18.1 11.7 10.7 62 4.0 W 35 54 19 29 1012.9 - 2.8
03/09:00pm 18.4 11.9 10.2 59 4.4 W 35 52 19 28 1012.9 1012.9 2.8
03/08:30pm 18.6 12.6 8.8 53 5.1 W 30 52 16 28 1012.6 - 2.8
03/08:27pm 18.6 12.6 8.8 53 5.1 W 30 48 16 26 1012.5 - 2.8
03/08:00pm 18.3 13.0 9.8 57 4.5 W 28 44 15 24 1012.4 - 2.8
03/07:36pm 17.3 12.7 12.2 72 2.8 W 28 44 15 24 1012.4 - 2.8
03/07:30pm 17.7 14.2 12.3 70 3.0 W 22 37 12 20 1012.4 - 2.6
03/07:00pm 16.9 14.9 12.6 76 2.4 WNW 15 20 8 11 1012.2 - 2.6
03/06:30pm 16.9 14.4 11.2 69 3.1 WNW 15 22 8 12 1011.9 - 2.6
03/06:00pm 17.3 13.5 11.0 66 3.4 W 22 33 12 18 1011.8 1011.8 2.6
03/05:30pm 17.0 13.9 14.4 85 1.5 W 24 37 13 20 1012.0 - 2.6
03/05:20pm 16.9 14.8 14.6 86 1.3 W 19 26 10 14 1011.9 - 2.6
03/05:00pm 16.6 13.3 14.9 90 1.0 W 26 39 14 21 1011.8 - 1.4
03/04:53pm 17.4 13.3 13.7 79 2.1 W 28 50 15 27 1011.5 - 0.4
03/04:49pm 19.1 15.8 12.9 67 3.5 W 22 35 12 19 1011.4 - 0.0
03/04:30pm 20.0 15.8 12.5 62 4.2 W 26 35 14 19 1011.3 - 0.0
03/04:00pm 21.3 15.1 10.0 48 6.1 WNW 33 52 18 28 1011.5 - 0.0
03/03:56pm 21.2 15.2 10.1 49 6.0 WNW 32 52 17 28 1011.5 - 0.0
03/03:30pm 21.2 15.5 9.9 48 6.1 WNW 30 43 16 23 1011.6 - 0.0
03/03:00pm 20.9 14.7 9.5 48 6.1 WNW 32 44 17 24 1011.9 1011.9 0.0
03/02:43pm 21.5 16.1 9.6 46 6.4 W 28 46 15 25 1011.9 - 0.0
03/02:30pm 20.8 14.9 8.9 46 6.3 W 30 43 16 23 1011.9 - 0.0
03/02:00pm 21.0 15.1 8.9 46 6.4 W 30 46 16 25 1011.9 - 0.0
03/01:49pm 21.9 16.3 8.9 43 6.9 W 28 46 15 25 1011.9 - 0.0
03/01:30pm 21.5 15.7 7.9 41 7.1 WNW 28 41 15 22 1012.0 - 0.0
03/01:00pm 21.1 15.1 8.6 44 6.6 W 30 43 16 23 1012.2 - 0.0
03/12:53pm 20.7 14.5 8.0 44 6.6 W 30 48 16 26 1012.3 - 0.0
03/12:30pm 21.0 14.4 8.4 44 6.6 W 33 46 18 25 1012.6 - 0.0
03/12:02pm 21.8 15.5 7.5 39 7.4 W 30 48 16 26 1013.0 - 0.0
03/12:00pm 21.6 14.8 7.0 39 7.5 WNW 32 48 17 26 1013.0 1013.0 0.0
03/11:48am 21.6 15.8 8.0 41 7.1 WNW 28 46 15 25 1013.0 - 0.0
03/11:30am 20.4 16.1 9.3 49 5.9 WNW 22 33 12 18 1013.2 - 0.0
03/11:00am 21.0 17.2 9.9 49 6.0 WNW 20 30 11 16 1013.4 - 0.0
03/10:30am 20.1 17.0 8.9 48 5.9 NNW 15 22 8 12 1013.7 - 0.0
03/10:00am 19.1 16.9 8.0 48 5.7 N 9 13 5 7 1013.9 - 0.0
03/09:30am 17.8 15.6 8.0 52 5.0 N 9 11 5 6 1014.1 - 0.0
03/09:00am 16.1 14.2 7.7 57 4.2 N 7 11 4 6 1014.2 1014.2 0.0
03/08:30am 14.9 12.6 7.6 61 3.6 N 9 11 5 6 1014.1 - 0.0
03/08:00am 13.5 11.1 7.1 65 3.1 N 9 11 5 6 1013.8 - 0.0
03/07:30am 9.6 7.2 6.8 83 1.3 NNE 9 11 5 6 1013.7 - 0.0
03/07:00am 7.5 5.4 6.6 94 0.4 SSW 7 9 4 5 1013.6 - 0.0
03/06:30am 7.8 5.7 6.7 93 0.5 SSW 7 7 4 4 1013.6 - 0.0
03/06:00am 8.1 6.0 6.6 90 0.7 SSW 7 9 4 5 1013.3 1013.3 0.0
03/05:30am 9.0 7.0 7.1 88 0.9 S 7 7 4 4 1013.3 - 0.0
03/05:00am 9.8 9.2 7.3 84 1.2 CALM 0 0 0 0 1013.3 - 0.0
03/04:30am 11.0 9.1 7.5 79 1.7 S 7 7 4 4 1013.6 - 0.0
03/04:00am 12.2 10.0 7.9 75 2.1 S 9 11 5 6 1013.7 - 0.0
03/03:30am 13.2 11.0 7.9 70 2.6 S 9 11 5 6 1013.9 - 0.0
03/03:00am 14.0 11.0 7.5 65 3.2 S 13 13 7 7 1013.8 1013.8 0.0
03/02:30am 14.5 11.3 6.9 60 3.7 S 13 15 7 8 1013.9 - 0.0
03/02:00am 14.4 10.9 7.3 62 3.5 S 15 17 8 9 1014.0 - 0.0
03/01:30am 14.9 11.4 7.4 61 3.7 SSW 15 17 8 9 1014.2 - 0.0
03/01:00am 15.1 11.2 7.2 59 3.9 S 17 20 9 11 1014.2 - 0.0
03/12:30am 15.5 10.7 7.4 58 4.0 S 22 28 12 15 1014.2 - 0.0
03/12:00am 15.9 11.1 7.2 56 4.3 S 22 28 12 15 1014.2 1014.2 0.0
 
Date/Time
WST
Tmp

°C
App
Tmp
°C
Dew
Point
°C
Rel
Hum
%
Delta-T

°C
Wind Press
QNH
hPa
Press
MSL
hPa
Rain
since
9 am
mm
Dir
 
Spd
km/h
Gust
km/h
Spd
kts
Gust
kts
02/11:30pm 16.3 12.0 7.2 55 4.5 S 19 26 10 14 1014.0 - 0.0
02/11:00pm 16.6 12.1 7.1 53 4.7 SSW 20 28 11 15 1014.3 - 0.0
02/10:30pm 16.6 13.1 7.1 53 4.7 SSW 15 19 8 10 1014.5 - 0.0
02/10:00pm 16.7 12.8 7.3 54 4.7 S 17 20 9 11 1014.6 - 0.0
02/09:30pm 16.5 12.7 7.5 55 4.5 S 17 19 9 10 1014.6 - 0.0
02/09:00pm 16.8 12.5 7.7 55 4.6 S 20 26 11 14 1014.8 1014.8 0.0
02/08:30pm 17.3 12.2 7.6 53 4.9 S 24 30 13 16 1014.8 - 0.0
02/08:00pm 17.7 13.7 8.1 53 4.9 SSW 19 24 10 13 1014.8 - 0.0
02/07:30pm 17.8 13.8 8.2 53 4.9 SSW 19 24 10 13 1014.6 - 0.0
02/07:00pm 18.1 14.4 7.9 51 5.2 SSW 17 22 9 12 1014.8 - 0.0
02/06:30pm 18.0 14.4 8.3 53 5.0 SSW 17 24 9 13 1014.4 - 0.0
02/06:00pm 18.2 15.1 8.8 54 4.9 SW 15 22 8 12 1014.1 1014.1 0.0
02/05:30pm 18.8 15.3 8.6 51 5.3 SW 17 24 9 13 1013.6 - 0.0
02/05:00pm 19.2 15.1 8.6 50 5.5 SW 20 24 11 13 1013.4 - 0.0
02/04:30pm 21.2 17.4 7.7 41 7.0 WSW 17 22 9 12 1013.4 - 0.0
02/04:00pm 21.6 17.9 6.4 37 7.7 SW 15 19 8 10 1013.4 - 0.0
02/03:30pm 21.1 17.1 6.7 39 7.3 SSW 17 22 9 12 1013.6 - 0.0
02/03:00pm 21.7 17.1 6.6 37 7.7 SW 20 28 11 15 1013.7 1013.7 0.0
02/02:30pm 21.6 18.1 7.2 39 7.4 WSW 15 22 8 12 1013.8 - 0.0
02/02:00pm 21.8 18.1 6.4 36 7.8 SW 15 22 8 12 1013.9 - 0.0
02/01:30pm 21.6 17.4 5.8 35 7.9 SSW 17 26 9 14 1014.1 - 0.0
02/01:00pm 21.3 17.9 5.9 36 7.7 WSW 13 22 7 12 1014.7 - 0.0
02/12:30pm 21.4 18.1 6.6 38 7.5 WSW 13 20 7 11 1015.2 - 0.0

Latest Capital City Observations: Canberra | Sydney | Melbourne | Brisbane | Adelaide | Perth | Hobart | Darwin

Other Formats:

Comma delimited format used in spreadsheet applications
http://www.bom.gov.au/fwo/IDW60901/IDW60901.94610.axf

JavaScript Object Notation format (JSON) in row-major order
http://www.bom.gov.au/fwo/IDW60901/IDW60901.94610.json